Briefing drone pour Eybens

Rechercher une autre localisation

Conditions de vol :


Nous sommes le : Lundi 28 septembre 2020
Il est 19:46 UTC (21:46 LT)

Lever de soleil : 05:05 UTC (07:05 LT)
Coucher de soleil : 17:49 UTC (19:49 LT)

Météo

L'essentiel des conditions de vol

VIGILANCE MÉTÉO FRANCE - Isère (38)
Pas de vigilances particulieres
METAR de LFLS
LFLS 281930Z AUTO VRB02KT 9999 -DZ BKN009 BKN013 OVC018 11/09 Q1019

Date d'émission: 28/09/2020
Heure d'émission: 19:30 UTC
Vent: Variable 2 KT (4 km/h)
Visibilité horizontale: > 10 km
Plafond :
- Nuages morcelés à 900ft (274m)
- Nuages morcelés à 1300ft (396m)
- Couvert à 1800ft (549m)
Température: 11 °C
Point de rosée: 9 °C
Humidité: 87%
Pression (QNH): 1019 hPa
Conditions: Faible Bruine
TAF de LFLS
LFLS 281913Z 2819/2915 CNL

Conditions prévues :

Heure d'émission : Bulletin éffectué le 28 à 19:00 UTC
Prévision : Valide du 28 a 19:00 UTC au 29 a 15:00 UTC
Nuages : à 0ft (0 m)
WEBCAM POUR EYBENS

Réglementation

Voler en sécurité

CARTES AERONAUTIQUE 1/500.000
CARTES VAC (LFLS)
SUP AIP




Chargement des AIP...
NOTAM (EYBENS + Terrain à proximité / FIR )




Chargement des NOTAMS...
CONTACT PREFECTURE 38


Avertissement : Les données mises à disposition sont indicatives. Oxygène Drone ne pourra être tenu responsable de dégâts causés aux biens et aux personnes.